sensor_id;sensor_type;location;lat;lon;timestamp;temperature;humidity
429;DHT22;201;48.758;9.290;2024-01-30T00:00:01;4.50;1.00
429;DHT22;201;48.758;9.290;2024-01-30T00:02:27;4.40;1.00
429;DHT22;201;48.758;9.290;2024-01-30T00:04:52;4.40;1.00
429;DHT22;201;48.758;9.290;2024-01-30T00:07:18;4.40;1.00
429;DHT22;201;48.758;9.290;2024-01-30T00:09:46;4.30;1.00
429;DHT22;201;48.758;9.290;2024-01-30T00:12:13;4.20;1.00
429;DHT22;201;48.758;9.290;2024-01-30T00:14:38;4.10;1.00
429;DHT22;201;48.758;9.290;2024-01-30T00:17:04;4.10;1.00
429;DHT22;201;48.758;9.290;2024-01-30T00:19:29;4.10;1.00
429;DHT22;201;48.758;9.290;2024-01-30T00:21:55;4.00;1.00
429;DHT22;201;48.758;9.290;2024-01-30T00:24:20;3.90;1.00
429;DHT22;201;48.758;9.290;2024-01-30T00:26:46;4.00;1.00
429;DHT22;201;48.758;9.290;2024-01-30T00:29:12;4.10;1.00
429;DHT22;201;48.758;9.290;2024-01-30T00:31:38;4.20;1.00
429;DHT22;201;48.758;9.290;2024-01-30T00:34:03;4.30;1.00
429;DHT22;201;48.758;9.290;2024-01-30T00:36:29;4.40;1.00
429;DHT22;201;48.758;9.290;2024-01-30T00:38:55;4.40;1.00
429;DHT22;201;48.758;9.290;2024-01-30T00:41:21;4.40;1.00
429;DHT22;201;48.758;9.290;2024-01-30T00:43:46;4.30;1.00
429;DHT22;201;48.758;9.290;2024-01-30T00:46:12;4.30;1.00
429;DHT22;201;48.758;9.290;2024-01-30T00:48:37;4.30;1.00
429;DHT22;201;48.758;9.290;2024-01-30T00:51:03;4.20;1.00
429;DHT22;201;48.758;9.290;2024-01-30T00:53:28;4.20;1.00
429;DHT22;201;48.758;9.290;2024-01-30T00:55:54;4.10;1.00
429;DHT22;201;48.758;9.290;2024-01-30T00:58:19;4.10;1.00
429;DHT22;201;48.758;9.290;2024-01-30T01:00:45;3.90;1.00
429;DHT22;201;48.758;9.290;2024-01-30T01:03:11;4.00;1.00
429;DHT22;201;48.758;9.290;2024-01-30T01:05:36;3.90;1.00
429;DHT22;201;48.758;9.290;2024-01-30T01:08:02;3.90;1.00
429;DHT22;201;48.758;9.290;2024-01-30T01:10:27;3.90;1.00
429;DHT22;201;48.758;9.290;2024-01-30T01:12:53;3.80;1.00
429;DHT22;201;48.758;9.290;2024-01-30T01:15:19;3.80;1.00
429;DHT22;201;48.758;9.290;2024-01-30T01:17:44;3.70;1.00
429;DHT22;201;48.758;9.290;2024-01-30T01:20:10;3.70;1.00
429;DHT22;201;48.758;9.290;2024-01-30T01:22:36;3.70;1.00
429;DHT22;201;48.758;9.290;2024-01-30T01:25:04;3.70;1.00
429;DHT22;201;48.758;9.290;2024-01-30T01:27:32;3.60;1.00
429;DHT22;201;48.758;9.290;2024-01-30T01:29:59;3.50;1.00
429;DHT22;201;48.758;9.290;2024-01-30T01:32:25;3.40;1.00
429;DHT22;201;48.758;9.290;2024-01-30T01:34:51;3.30;1.00
429;DHT22;201;48.758;9.290;2024-01-30T01:37:17;3.30;1.00
429;DHT22;201;48.758;9.290;2024-01-30T01:39:42;3.20;1.00
429;DHT22;201;48.758;9.290;2024-01-30T01:42:08;3.20;1.00
429;DHT22;201;48.758;9.290;2024-01-30T01:44:33;3.10;1.00
429;DHT22;201;48.758;9.290;2024-01-30T01:46:59;3.10;1.00
429;DHT22;201;48.758;9.290;2024-01-30T01:49:25;3.10;1.00
429;DHT22;201;48.758;9.290;2024-01-30T01:51:54;3.10;1.00
429;DHT22;201;48.758;9.290;2024-01-30T01:54:22;3.10;1.00
429;DHT22;201;48.758;9.290;2024-01-30T01:56:49;3.20;1.00
429;DHT22;201;48.758;9.290;2024-01-30T01:59:15;3.20;1.00
429;DHT22;201;48.758;9.290;2024-01-30T02:01:41;3.20;1.00
429;DHT22;201;48.758;9.290;2024-01-30T02:04:07;3.20;1.00
429;DHT22;201;48.758;9.290;2024-01-30T02:06:34;3.20;1.00
429;DHT22;201;48.758;9.290;2024-01-30T02:08:59;3.00;1.00
429;DHT22;201;48.758;9.290;2024-01-30T02:11:25;3.00;1.00
429;DHT22;201;48.758;9.290;2024-01-30T02:13:50;2.80;1.00
429;DHT22;201;48.758;9.290;2024-01-30T02:16:16;2.70;1.00
429;DHT22;201;48.758;9.290;2024-01-30T02:18:45;2.50;1.20
429;DHT22;201;48.758;9.290;2024-01-30T02:21:16;2.50;1.90
429;DHT22;201;48.758;9.290;2024-01-30T02:23:44;2.40;2.10
429;DHT22;201;48.758;9.290;2024-01-30T02:26:11;2.40;2.50
429;DHT22;201;48.758;9.290;2024-01-30T02:28:37;2.40;3.00
429;DHT22;201;48.758;9.290;2024-01-30T02:31:03;2.40;3.50
429;DHT22;201;48.758;9.290;2024-01-30T02:33:29;2.50;3.80
429;DHT22;201;48.758;9.290;2024-01-30T02:35:54;2.50;3.90
429;DHT22;201;48.758;9.290;2024-01-30T02:38:20;2.60;3.80
429;DHT22;201;48.758;9.290;2024-01-30T02:40:45;2.70;3.90
429;DHT22;201;48.758;9.290;2024-01-30T02:43:11;2.80;3.60
429;DHT22;201;48.758;9.290;2024-01-30T02:45:37;3.00;3.10
429;DHT22;201;48.758;9.290;2024-01-30T02:48:03;3.00;2.30
429;DHT22;201;48.758;9.290;2024-01-30T02:50:28;3.10;1.50
429;DHT22;201;48.758;9.290;2024-01-30T02:52:54;3.10;1.40
429;DHT22;201;48.758;9.290;2024-01-30T02:55:19;3.10;1.30
429;DHT22;201;48.758;9.290;2024-01-30T02:57:45;3.10;1.40
429;DHT22;201;48.758;9.290;2024-01-30T03:00:11;3.10;1.20
429;DHT22;201;48.758;9.290;2024-01-30T03:02:36;3.00;1.20
429;DHT22;201;48.758;9.290;2024-01-30T03:05:02;2.90;1.30
429;DHT22;201;48.758;9.290;2024-01-30T03:07:29;2.80;1.30
429;DHT22;201;48.758;9.290;2024-01-30T03:09:54;2.80;1.50
429;DHT22;201;48.758;9.290;2024-01-30T03:12:21;2.80;1.60
429;DHT22;201;48.758;9.290;2024-01-30T03:14:46;2.80;1.60
429;DHT22;201;48.758;9.290;2024-01-30T03:17:12;2.70;1.60
429;DHT22;201;48.758;9.290;2024-01-30T03:19:37;2.80;1.80
429;DHT22;201;48.758;9.290;2024-01-30T03:22:03;2.70;1.80
429;DHT22;201;48.758;9.290;2024-01-30T03:24:28;2.70;1.80
429;DHT22;201;48.758;9.290;2024-01-30T03:26:54;2.70;1.90
429;DHT22;201;48.758;9.290;2024-01-30T03:29:19;2.70;1.90
429;DHT22;201;48.758;9.290;2024-01-30T03:31:45;2.80;1.90
429;DHT22;201;48.758;9.290;2024-01-30T03:34:10;2.80;1.80
429;DHT22;201;48.758;9.290;2024-01-30T03:36:36;2.80;1.60
429;DHT22;201;48.758;9.290;2024-01-30T03:39:02;2.90;1.20
429;DHT22;201;48.758;9.290;2024-01-30T03:41:27;2.90;1.00
429;DHT22;201;48.758;9.290;2024-01-30T03:43:53;2.90;1.00
429;DHT22;201;48.758;9.290;2024-01-30T03:46:18;3.00;1.00
429;DHT22;201;48.758;9.290;2024-01-30T03:48:45;2.90;1.00
429;DHT22;201;48.758;9.290;2024-01-30T03:51:11;3.00;1.00
429;DHT22;201;48.758;9.290;2024-01-30T03:53:41;2.90;1.00
429;DHT22;201;48.758;9.290;2024-01-30T03:56:07;2.90;1.00
429;DHT22;201;48.758;9.290;2024-01-30T03:58:33;2.90;1.00
429;DHT22;201;48.758;9.290;2024-01-30T04:00:59;2.90;1.00
429;DHT22;201;48.758;9.290;2024-01-30T04:03:24;2.90;1.00
429;DHT22;201;48.758;9.290;2024-01-30T04:05:51;3.00;1.00
429;DHT22;201;48.758;9.290;2024-01-30T04:08:17;2.90;1.00
429;DHT22;201;48.758;9.290;2024-01-30T04:10:43;2.90;1.00
429;DHT22;201;48.758;9.290;2024-01-30T04:13:08;3.00;1.00
429;DHT22;201;48.758;9.290;2024-01-30T04:15:34;2.90;1.00
429;DHT22;201;48.758;9.290;2024-01-30T04:18:00;2.90;1.00
429;DHT22;201;48.758;9.290;2024-01-30T04:20:25;2.90;1.00
429;DHT22;201;48.758;9.290;2024-01-30T04:22:51;2.90;1.00
429;DHT22;201;48.758;9.290;2024-01-30T04:25:17;2.80;1.00
429;DHT22;201;48.758;9.290;2024-01-30T04:27:42;2.90;1.00
429;DHT22;201;48.758;9.290;2024-01-30T04:30:08;2.80;1.00
429;DHT22;201;48.758;9.290;2024-01-30T04:32:35;2.80;1.00
429;DHT22;201;48.758;9.290;2024-01-30T04:35:00;2.80;1.00
429;DHT22;201;48.758;9.290;2024-01-30T04:37:26;2.70;1.00
429;DHT22;201;48.758;9.290;2024-01-30T04:39:51;2.70;1.00
429;DHT22;201;48.758;9.290;2024-01-30T04:42:17;2.60;1.00
429;DHT22;201;48.758;9.290;2024-01-30T04:44:43;2.70;1.00
429;DHT22;201;48.758;9.290;2024-01-30T04:47:08;2.60;1.00
429;DHT22;201;48.758;9.290;2024-01-30T04:49:36;2.60;1.00
429;DHT22;201;48.758;9.290;2024-01-30T04:52:02;2.60;1.00
429;DHT22;201;48.758;9.290;2024-01-30T04:54:27;2.60;1.10
429;DHT22;201;48.758;9.290;2024-01-30T04:56:53;2.60;1.10
429;DHT22;201;48.758;9.290;2024-01-30T04:59:18;2.50;1.30
429;DHT22;201;48.758;9.290;2024-01-30T05:01:44;2.50;1.40
429;DHT22;201;48.758;9.290;2024-01-30T05:04:10;2.30;1.50
429;DHT22;201;48.758;9.290;2024-01-30T05:06:36;2.30;1.60
429;DHT22;201;48.758;9.290;2024-01-30T05:09:02;2.10;1.90
429;DHT22;201;48.758;9.290;2024-01-30T05:11:28;2.10;2.30
429;DHT22;201;48.758;9.290;2024-01-30T05:13:54;2.00;2.60
429;DHT22;201;48.758;9.290;2024-01-30T05:16:19;1.90;2.70
429;DHT22;201;48.758;9.290;2024-01-30T05:18:45;1.80;3.20
429;DHT22;201;48.758;9.290;2024-01-30T05:21:10;1.70;3.70
429;DHT22;201;48.758;9.290;2024-01-30T05:23:36;1.50;4.50
429;DHT22;201;48.758;9.290;2024-01-30T05:26:02;1.50;4.50
429;DHT22;201;48.758;9.290;2024-01-30T05:28:30;1.40;4.40
429;DHT22;201;48.758;9.290;2024-01-30T05:30:56;1.40;4.40
429;DHT22;201;48.758;9.290;2024-01-30T05:33:22;1.40;4.80
429;DHT22;201;48.758;9.290;2024-01-30T05:35:47;1.30;5.10
429;DHT22;201;48.758;9.290;2024-01-30T05:38:15;1.30;5.70
429;DHT22;201;48.758;9.290;2024-01-30T05:40:40;1.30;6.00
429;DHT22;201;48.758;9.290;2024-01-30T05:43:06;1.30;6.20
429;DHT22;201;48.758;9.290;2024-01-30T05:45:31;1.30;6.30
429;DHT22;201;48.758;9.290;2024-01-30T05:47:56;1.30;6.30
429;DHT22;201;48.758;9.290;2024-01-30T05:50:22;1.40;6.40
429;DHT22;201;48.758;9.290;2024-01-30T05:52:48;1.40;6.40
429;DHT22;201;48.758;9.290;2024-01-30T05:55:14;1.40;6.30
429;DHT22;201;48.758;9.290;2024-01-30T05:57:40;1.40;6.30
429;DHT22;201;48.758;9.290;2024-01-30T06:00:06;1.40;6.30
429;DHT22;201;48.758;9.290;2024-01-30T06:02:32;1.40;6.30
429;DHT22;201;48.758;9.290;2024-01-30T06:04:58;1.40;6.30
429;DHT22;201;48.758;9.290;2024-01-30T06:07:23;1.40;6.20
429;DHT22;201;48.758;9.290;2024-01-30T06:09:49;1.40;6.20
429;DHT22;201;48.758;9.290;2024-01-30T06:12:15;1.40;6.10
429;DHT22;201;48.758;9.290;2024-01-30T06:14:40;1.50;6.30
429;DHT22;201;48.758;9.290;2024-01-30T06:17:08;1.50;6.20
429;DHT22;201;48.758;9.290;2024-01-30T06:19:33;1.50;6.10
429;DHT22;201;48.758;9.290;2024-01-30T06:21:59;1.50;6.00
429;DHT22;201;48.758;9.290;2024-01-30T06:24:24;1.50;5.80
429;DHT22;201;48.758;9.290;2024-01-30T06:26:50;1.50;5.60
429;DHT22;201;48.758;9.290;2024-01-30T06:29:15;1.40;5.60
429;DHT22;201;48.758;9.290;2024-01-30T06:31:42;1.40;5.70
429;DHT22;201;48.758;9.290;2024-01-30T06:34:11;1.40;5.80
429;DHT22;201;48.758;9.290;2024-01-30T06:36:37;1.40;5.90
429;DHT22;201;48.758;9.290;2024-01-30T06:39:03;1.30;5.90
429;DHT22;201;48.758;9.290;2024-01-30T06:41:29;1.30;6.00
429;DHT22;201;48.758;9.290;2024-01-30T06:43:55;1.30;6.10
429;DHT22;201;48.758;9.290;2024-01-30T06:46:21;1.30;6.30
429;DHT22;201;48.758;9.290;2024-01-30T06:48:46;1.30;6.50
429;DHT22;201;48.758;9.290;2024-01-30T06:51:12;1.30;6.30
429;DHT22;201;48.758;9.290;2024-01-30T06:53:38;1.30;6.40
429;DHT22;201;48.758;9.290;2024-01-30T06:56:03;1.30;6.40
429;DHT22;201;48.758;9.290;2024-01-30T06:58:29;1.30;6.50
429;DHT22;201;48.758;9.290;2024-01-30T07:00:55;1.30;6.50
429;DHT22;201;48.758;9.290;2024-01-30T07:03:21;1.40;6.60
429;DHT22;201;48.758;9.290;2024-01-30T07:05:47;1.40;6.50
429;DHT22;201;48.758;9.290;2024-01-30T07:08:12;1.40;6.50
429;DHT22;201;48.758;9.290;2024-01-30T07:10:38;1.50;6.60
429;DHT22;201;48.758;9.290;2024-01-30T07:13:03;1.60;7.50
429;DHT22;201;48.758;9.290;2024-01-30T07:15:31;1.80;7.60
429;DHT22;201;48.758;9.290;2024-01-30T07:17:56;1.90;6.90
429;DHT22;201;48.758;9.290;2024-01-30T07:20:22;1.90;6.00
429;DHT22;201;48.758;9.290;2024-01-30T07:22:47;1.90;4.70
429;DHT22;201;48.758;9.290;2024-01-30T07:25:13;1.90;4.70
429;DHT22;201;48.758;9.290;2024-01-30T07:27:38;1.80;4.70
429;DHT22;201;48.758;9.290;2024-01-30T07:30:04;1.80;4.60
429;DHT22;201;48.758;9.290;2024-01-30T07:32:30;1.80;4.30
429;DHT22;201;48.758;9.290;2024-01-30T07:34:57;1.90;4.20
429;DHT22;201;48.758;9.290;2024-01-30T07:37:22;1.80;3.90
429;DHT22;201;48.758;9.290;2024-01-30T07:39:48;1.80;3.90
429;DHT22;201;48.758;9.290;2024-01-30T07:42:13;1.80;3.80
429;DHT22;201;48.758;9.290;2024-01-30T07:44:39;1.80;3.80
429;DHT22;201;48.758;9.290;2024-01-30T07:47:05;1.80;3.80
429;DHT22;201;48.758;9.290;2024-01-30T07:49:30;1.80;3.70
429;DHT22;201;48.758;9.290;2024-01-30T07:51:56;1.90;3.80
429;DHT22;201;48.758;9.290;2024-01-30T07:54:21;2.00;3.70
429;DHT22;201;48.758;9.290;2024-01-30T07:56:47;2.10;2.90
429;DHT22;201;48.758;9.290;2024-01-30T07:59:12;2.20;2.70
429;DHT22;201;48.758;9.290;2024-01-30T08:01:38;2.20;2.30
429;DHT22;201;48.758;9.290;2024-01-30T08:04:04;2.20;1.80
429;DHT22;201;48.758;9.290;2024-01-30T08:06:29;2.20;1.80
429;DHT22;201;48.758;9.290;2024-01-30T08:08:55;2.20;1.60
429;DHT22;201;48.758;9.290;2024-01-30T08:11:21;2.20;1.30
429;DHT22;201;48.758;9.290;2024-01-30T08:13:52;2.20;1.30
429;DHT22;201;48.758;9.290;2024-01-30T08:16:18;2.20;1.20
429;DHT22;201;48.758;9.290;2024-01-30T08:18:43;2.30;1.30
429;DHT22;201;48.758;9.290;2024-01-30T08:21:09;2.40;1.10
429;DHT22;201;48.758;9.290;2024-01-30T08:23:34;2.50;1.00
429;DHT22;201;48.758;9.290;2024-01-30T08:26:00;2.70;1.00
429;DHT22;201;48.758;9.290;2024-01-30T08:28:26;2.80;1.00
429;DHT22;201;48.758;9.290;2024-01-30T08:30:52;2.90;1.00
429;DHT22;201;48.758;9.290;2024-01-30T08:33:17;3.20;1.00
429;DHT22;201;48.758;9.290;2024-01-30T08:35:43;3.30;1.00
429;DHT22;201;48.758;9.290;2024-01-30T08:38:08;3.50;1.00
429;DHT22;201;48.758;9.290;2024-01-30T08:40:34;3.60;1.00
429;DHT22;201;48.758;9.290;2024-01-30T08:43:00;3.90;1.00
429;DHT22;201;48.758;9.290;2024-01-30T08:45:27;4.10;1.00
429;DHT22;201;48.758;9.290;2024-01-30T08:47:52;4.40;1.00
429;DHT22;201;48.758;9.290;2024-01-30T08:50:18;4.60;1.00
429;DHT22;201;48.758;9.290;2024-01-30T08:52:43;4.70;1.00
429;DHT22;201;48.758;9.290;2024-01-30T08:55:09;4.80;1.00
429;DHT22;201;48.758;9.290;2024-01-30T08:57:35;5.00;1.00
429;DHT22;201;48.758;9.290;2024-01-30T09:00:00;5.20;1.00
429;DHT22;201;48.758;9.290;2024-01-30T09:02:29;5.50;1.00
429;DHT22;201;48.758;9.290;2024-01-30T09:04:55;5.50;1.00
429;DHT22;201;48.758;9.290;2024-01-30T09:07:21;5.60;1.00
429;DHT22;201;48.758;9.290;2024-01-30T09:09:46;5.90;1.00
429;DHT22;201;48.758;9.290;2024-01-30T09:12:12;5.90;1.00
429;DHT22;201;48.758;9.290;2024-01-30T09:14:38;5.90;1.00
429;DHT22;201;48.758;9.290;2024-01-30T09:17:04;6.00;1.00
429;DHT22;201;48.758;9.290;2024-01-30T09:19:30;6.10;1.00
429;DHT22;201;48.758;9.290;2024-01-30T09:21:56;6.30;1.00
429;DHT22;201;48.758;9.290;2024-01-30T09:24:21;6.40;1.00
429;DHT22;201;48.758;9.290;2024-01-30T09:26:47;6.50;1.00
429;DHT22;201;48.758;9.290;2024-01-30T09:29:12;6.50;1.00
429;DHT22;201;48.758;9.290;2024-01-30T09:31:38;6.70;1.00
429;DHT22;201;48.758;9.290;2024-01-30T09:34:03;6.90;1.00
429;DHT22;201;48.758;9.290;2024-01-30T09:36:29;7.00;1.00
429;DHT22;201;48.758;9.290;2024-01-30T09:38:54;7.10;1.00
429;DHT22;201;48.758;9.290;2024-01-30T09:41:24;7.30;1.00
429;DHT22;201;48.758;9.290;2024-01-30T09:43:50;7.60;1.00
429;DHT22;201;48.758;9.290;2024-01-30T09:46:18;7.70;1.00
429;DHT22;201;48.758;9.290;2024-01-30T09:48:47;8.00;1.00
429;DHT22;201;48.758;9.290;2024-01-30T09:51:14;8.20;1.00
429;DHT22;201;48.758;9.290;2024-01-30T09:53:42;8.40;1.00
429;DHT22;201;48.758;9.290;2024-01-30T09:56:08;8.50;1.00
429;DHT22;201;48.758;9.290;2024-01-30T09:58:34;8.60;1.00
429;DHT22;201;48.758;9.290;2024-01-30T10:00:59;8.70;1.00
429;DHT22;201;48.758;9.290;2024-01-30T10:03:25;8.80;1.00
429;DHT22;201;48.758;9.290;2024-01-30T10:05:51;8.90;1.00
429;DHT22;201;48.758;9.290;2024-01-30T10:08:20;9.00;1.00
429;DHT22;201;48.758;9.290;2024-01-30T10:10:49;8.90;1.00
429;DHT22;201;48.758;9.290;2024-01-30T10:13:16;9.00;1.00
429;DHT22;201;48.758;9.290;2024-01-30T10:15:42;9.10;1.00
429;DHT22;201;48.758;9.290;2024-01-30T10:18:11;9.10;1.00
429;DHT22;201;48.758;9.290;2024-01-30T10:20:37;9.20;1.00
429;DHT22;201;48.758;9.290;2024-01-30T10:23:03;9.40;1.00
429;DHT22;201;48.758;9.290;2024-01-30T10:25:30;9.50;1.00
429;DHT22;201;48.758;9.290;2024-01-30T10:27:56;9.70;1.00
429;DHT22;201;48.758;9.290;2024-01-30T10:30:23;9.70;1.00
429;DHT22;201;48.758;9.290;2024-01-30T10:32:49;9.80;1.00
429;DHT22;201;48.758;9.290;2024-01-30T10:35:15;9.70;1.00
429;DHT22;201;48.758;9.290;2024-01-30T10:37:43;9.60;1.00
429;DHT22;201;48.758;9.290;2024-01-30T10:40:12;9.60;1.00
429;DHT22;201;48.758;9.290;2024-01-30T10:42:44;9.60;1.00
429;DHT22;201;48.758;9.290;2024-01-30T10:45:11;9.60;1.00
429;DHT22;201;48.758;9.290;2024-01-30T10:47:49;9.60;1.00
429;DHT22;201;48.758;9.290;2024-01-30T10:50:15;9.70;1.00
429;DHT22;201;48.758;9.290;2024-01-30T10:52:41;9.70;1.00
429;DHT22;201;48.758;9.290;2024-01-30T10:55:10;9.60;1.00
429;DHT22;201;48.758;9.290;2024-01-30T10:57:36;9.60;1.00
429;DHT22;201;48.758;9.290;2024-01-30T11:00:04;9.50;1.00
429;DHT22;201;48.758;9.290;2024-01-30T11:02:44;9.50;1.00
429;DHT22;201;48.758;9.290;2024-01-30T11:05:10;9.40;1.00
429;DHT22;201;48.758;9.290;2024-01-30T11:07:39;9.40;1.00
429;DHT22;201;48.758;9.290;2024-01-30T11:10:05;9.50;1.00
429;DHT22;201;48.758;9.290;2024-01-30T11:12:38;9.30;1.00
429;DHT22;201;48.758;9.290;2024-01-30T11:15:14;9.50;1.00
429;DHT22;201;48.758;9.290;2024-01-30T11:18:00;9.70;1.00
429;DHT22;201;48.758;9.290;2024-01-30T11:20:29;9.80;1.00
429;DHT22;201;48.758;9.290;2024-01-30T11:22:57;9.90;1.00
429;DHT22;201;48.758;9.290;2024-01-30T11:25:24;9.90;1.00
429;DHT22;201;48.758;9.290;2024-01-30T11:27:52;10.00;1.00
429;DHT22;201;48.758;9.290;2024-01-30T11:30:30;10.10;1.00
429;DHT22;201;48.758;9.290;2024-01-30T11:33:05;10.30;1.00
429;DHT22;201;48.758;9.290;2024-01-30T11:35:35;10.30;1.00
429;DHT22;201;48.758;9.290;2024-01-30T11:38:02;10.40;1.00
429;DHT22;201;48.758;9.290;2024-01-30T11:40:29;10.40;1.00
429;DHT22;201;48.758;9.290;2024-01-30T11:42:55;10.40;1.00
429;DHT22;201;48.758;9.290;2024-01-30T11:45:21;10.40;1.00
429;DHT22;201;48.758;9.290;2024-01-30T11:47:47;10.50;1.00
429;DHT22;201;48.758;9.290;2024-01-30T11:50:13;10.60;1.00
429;DHT22;201;48.758;9.290;2024-01-30T11:52:39;10.70;1.00
429;DHT22;201;48.758;9.290;2024-01-30T11:55:05;10.90;1.00
429;DHT22;201;48.758;9.290;2024-01-30T11:57:31;11.10;1.00
429;DHT22;201;48.758;9.290;2024-01-30T11:59:57;11.20;1.00
429;DHT22;201;48.758;9.290;2024-01-30T12:02:22;11.40;1.00
429;DHT22;201;48.758;9.290;2024-01-30T12:04:48;11.50;1.00
429;DHT22;201;48.758;9.290;2024-01-30T12:07:13;11.60;1.00
429;DHT22;201;48.758;9.290;2024-01-30T12:09:42;11.70;1.00
429;DHT22;201;48.758;9.290;2024-01-30T12:12:08;11.70;1.00
429;DHT22;201;48.758;9.290;2024-01-30T12:14:38;11.70;1.00
429;DHT22;201;48.758;9.290;2024-01-30T12:17:04;11.70;1.00
429;DHT22;201;48.758;9.290;2024-01-30T12:19:30;11.60;1.00
429;DHT22;201;48.758;9.290;2024-01-30T12:21:57;11.60;1.00
429;DHT22;201;48.758;9.290;2024-01-30T12:24:25;11.60;1.00
429;DHT22;201;48.758;9.290;2024-01-30T12:26:51;11.70;1.00
429;DHT22;201;48.758;9.290;2024-01-30T12:29:17;11.70;1.00
429;DHT22;201;48.758;9.290;2024-01-30T12:31:43;11.90;1.00
429;DHT22;201;48.758;9.290;2024-01-30T12:34:09;11.90;1.00
429;DHT22;201;48.758;9.290;2024-01-30T12:36:34;12.10;1.00
429;DHT22;201;48.758;9.290;2024-01-30T12:39:02;12.30;1.00
429;DHT22;201;48.758;9.290;2024-01-30T12:41:27;12.30;1.00
429;DHT22;201;48.758;9.290;2024-01-30T12:43:54;12.30;1.00
429;DHT22;201;48.758;9.290;2024-01-30T12:46:20;12.10;1.00
429;DHT22;201;48.758;9.290;2024-01-30T12:48:45;12.00;1.00
429;DHT22;201;48.758;9.290;2024-01-30T12:51:11;12.00;1.00
429;DHT22;201;48.758;9.290;2024-01-30T12:53:37;11.90;1.00
429;DHT22;201;48.758;9.290;2024-01-30T12:56:02;12.00;1.00
429;DHT22;201;48.758;9.290;2024-01-30T12:58:28;12.00;1.00
429;DHT22;201;48.758;9.290;2024-01-30T13:00:54;12.00;1.00
429;DHT22;201;48.758;9.290;2024-01-30T13:03:20;12.00;1.00
429;DHT22;201;48.758;9.290;2024-01-30T13:05:45;12.20;1.00
429;DHT22;201;48.758;9.290;2024-01-30T13:08:11;12.40;1.00
429;DHT22;201;48.758;9.290;2024-01-30T13:10:36;12.60;1.00
429;DHT22;201;48.758;9.290;2024-01-30T13:13:02;12.70;1.00
429;DHT22;201;48.758;9.290;2024-01-30T13:15:28;12.70;1.00
429;DHT22;201;48.758;9.290;2024-01-30T13:17:53;12.70;1.00
429;DHT22;201;48.758;9.290;2024-01-30T13:20:19;12.70;1.00
429;DHT22;201;48.758;9.290;2024-01-30T13:22:47;12.80;1.00
429;DHT22;201;48.758;9.290;2024-01-30T13:25:14;13.00;1.00
429;DHT22;201;48.758;9.290;2024-01-30T13:27:41;13.10;1.00
429;DHT22;201;48.758;9.290;2024-01-30T13:30:07;13.20;1.00
429;DHT22;201;48.758;9.290;2024-01-30T13:32:34;13.30;1.00
429;DHT22;201;48.758;9.290;2024-01-30T13:34:59;13.20;1.00
429;DHT22;201;48.758;9.290;2024-01-30T13:37:25;13.30;1.00
429;DHT22;201;48.758;9.290;2024-01-30T13:39:51;13.40;1.00
429;DHT22;201;48.758;9.290;2024-01-30T13:42:16;13.50;1.00
429;DHT22;201;48.758;9.290;2024-01-30T13:44:42;13.40;1.00
429;DHT22;201;48.758;9.290;2024-01-30T13:47:09;13.40;1.00
429;DHT22;201;48.758;9.290;2024-01-30T13:49:35;13.30;1.00
429;DHT22;201;48.758;9.290;2024-01-30T13:52:00;13.00;1.00
429;DHT22;201;48.758;9.290;2024-01-30T13:54:26;12.70;1.00
429;DHT22;201;48.758;9.290;2024-01-30T13:56:51;12.50;1.00
429;DHT22;201;48.758;9.290;2024-01-30T13:59:17;12.30;1.00
429;DHT22;201;48.758;9.290;2024-01-30T14:01:48;12.20;1.00
429;DHT22;201;48.758;9.290;2024-01-30T14:04:14;12.10;1.00
429;DHT22;201;48.758;9.290;2024-01-30T14:06:40;12.00;1.00
429;DHT22;201;48.758;9.290;2024-01-30T14:09:06;11.90;1.00
429;DHT22;201;48.758;9.290;2024-01-30T14:11:31;11.90;1.00
429;DHT22;201;48.758;9.290;2024-01-30T14:13:57;11.80;1.00
429;DHT22;201;48.758;9.290;2024-01-30T14:16:23;11.60;1.00
429;DHT22;201;48.758;9.290;2024-01-30T14:18:50;11.70;1.00
429;DHT22;201;48.758;9.290;2024-01-30T14:21:15;11.60;1.00
429;DHT22;201;48.758;9.290;2024-01-30T14:23:41;11.50;1.00
429;DHT22;201;48.758;9.290;2024-01-30T14:26:06;11.40;1.00
429;DHT22;201;48.758;9.290;2024-01-30T14:28:32;11.40;1.00
429;DHT22;201;48.758;9.290;2024-01-30T14:30:57;11.30;1.00
429;DHT22;201;48.758;9.290;2024-01-30T14:33:23;11.20;1.00
429;DHT22;201;48.758;9.290;2024-01-30T14:35:48;11.30;1.00
429;DHT22;201;48.758;9.290;2024-01-30T14:38:14;11.10;1.00
429;DHT22;201;48.758;9.290;2024-01-30T14:40:40;11.00;1.00
429;DHT22;201;48.758;9.290;2024-01-30T14:43:05;10.90;1.00
429;DHT22;201;48.758;9.290;2024-01-30T14:45:31;10.80;1.00
429;DHT22;201;48.758;9.290;2024-01-30T14:47:58;10.80;1.00
429;DHT22;201;48.758;9.290;2024-01-30T14:50:23;10.70;1.00
429;DHT22;201;48.758;9.290;2024-01-30T14:52:49;10.80;1.00
429;DHT22;201;48.758;9.290;2024-01-30T14:55:14;10.80;1.00
429;DHT22;201;48.758;9.290;2024-01-30T14:57:40;10.90;1.00
429;DHT22;201;48.758;9.290;2024-01-30T15:00:08;10.80;1.00
429;DHT22;201;48.758;9.290;2024-01-30T15:02:34;10.80;1.00
429;DHT22;201;48.758;9.290;2024-01-30T15:05:00;10.80;1.00
429;DHT22;201;48.758;9.290;2024-01-30T15:07:26;10.70;1.00
429;DHT22;201;48.758;9.290;2024-01-30T15:09:53;10.60;1.00
429;DHT22;201;48.758;9.290;2024-01-30T15:12:18;10.60;1.00
429;DHT22;201;48.758;9.290;2024-01-30T15:14:43;10.60;1.00
429;DHT22;201;48.758;9.290;2024-01-30T15:17:17;10.60;1.00
429;DHT22;201;48.758;9.290;2024-01-30T15:19:42;10.60;1.00
429;DHT22;201;48.758;9.290;2024-01-30T15:22:08;10.60;1.00
429;DHT22;201;48.758;9.290;2024-01-30T15:24:33;10.50;1.00
429;DHT22;201;48.758;9.290;2024-01-30T15:26:59;10.50;1.00
429;DHT22;201;48.758;9.290;2024-01-30T15:29:24;10.50;1.00
429;DHT22;201;48.758;9.290;2024-01-30T15:31:50;10.40;1.00
429;DHT22;201;48.758;9.290;2024-01-30T15:34:15;10.30;1.00
429;DHT22;201;48.758;9.290;2024-01-30T15:36:41;10.20;1.00
429;DHT22;201;48.758;9.290;2024-01-30T15:39:07;10.20;1.00
429;DHT22;201;48.758;9.290;2024-01-30T15:41:33;10.00;1.00
429;DHT22;201;48.758;9.290;2024-01-30T15:43:58;9.80;1.00
429;DHT22;201;48.758;9.290;2024-01-30T15:46:27;9.70;1.00
429;DHT22;201;48.758;9.290;2024-01-30T15:48:53;9.80;1.00
429;DHT22;201;48.758;9.290;2024-01-30T15:51:19;9.70;1.00
429;DHT22;201;48.758;9.290;2024-01-30T15:53:44;9.60;1.00
429;DHT22;201;48.758;9.290;2024-01-30T15:56:10;9.60;1.00
429;DHT22;201;48.758;9.290;2024-01-30T15:58:35;9.50;1.00
429;DHT22;201;48.758;9.290;2024-01-30T16:01:01;9.50;1.00
429;DHT22;201;48.758;9.290;2024-01-30T16:03:27;9.40;1.00
429;DHT22;201;48.758;9.290;2024-01-30T16:05:53;9.40;1.00
429;DHT22;201;48.758;9.290;2024-01-30T16:08:18;9.30;1.00
429;DHT22;201;48.758;9.290;2024-01-30T16:10:44;9.30;1.00
429;DHT22;201;48.758;9.290;2024-01-30T16:13:09;9.20;1.00
429;DHT22;201;48.758;9.290;2024-01-30T16:15:35;9.20;1.00
429;DHT22;201;48.758;9.290;2024-01-30T16:18:00;9.20;1.00
429;DHT22;201;48.758;9.290;2024-01-30T16:20:26;9.10;1.00
429;DHT22;201;48.758;9.290;2024-01-30T16:22:51;9.10;1.00
429;DHT22;201;48.758;9.290;2024-01-30T16:25:19;9.00;1.00
429;DHT22;201;48.758;9.290;2024-01-30T16:27:45;9.00;1.00
429;DHT22;201;48.758;9.290;2024-01-30T16:30:11;9.00;1.00
429;DHT22;201;48.758;9.290;2024-01-30T16:32:36;9.00;1.00
429;DHT22;201;48.758;9.290;2024-01-30T16:35:02;9.00;1.00
429;DHT22;201;48.758;9.290;2024-01-30T16:37:28;8.90;1.00
429;DHT22;201;48.758;9.290;2024-01-30T16:39:54;8.90;1.00
429;DHT22;201;48.758;9.290;2024-01-30T16:42:19;8.90;1.00
429;DHT22;201;48.758;9.290;2024-01-30T16:44:45;8.80;1.00
429;DHT22;201;48.758;9.290;2024-01-30T16:47:10;8.80;1.00
429;DHT22;201;48.758;9.290;2024-01-30T16:49:36;8.70;1.00
429;DHT22;201;48.758;9.290;2024-01-30T16:52:02;8.70;1.00
429;DHT22;201;48.758;9.290;2024-01-30T16:54:30;8.70;1.00